Time;durP1;ratioP1;P1;durP2;ratioP2;P2;SDS_P1;SDS_P2;PMS_P1;PMS_P2;Temp;Humidity;BMP_temperature;BMP_pressure;BME280_temperature;BME280_humidity;BME280_pressure;Samples;Min_cycle;Max_cycle;Signal;HPM_P1;HPM_P2
2022/06/24 00:01:42;;;;;;;6.90;3.67;;;;;;;;;;5052899;28;20442;-76
2022/06/24 00:04:09;;;;;;;8.43;4.40;;;;;;;;;;5052370;28;20408;-77
2022/06/24 00:06:45;;;;;;;7.13;4.00;;;;;;;;;;5052811;28;20460;-76
2022/06/24 00:09:11;;;;;;;11.63;3.80;;;;;;;;;;5052854;28;20406;-78
2022/06/24 00:11:37;;;;;;;6.70;4.23;;;;;;;;;;5052999;28;20504;-78
2022/06/24 00:14:25;;;;;;;8.47;5.40;;;;;;;;;;5052355;28;20452;-78
2022/06/24 00:16:57;;;;;;;8.57;4.80;;;;;;;;;;5052949;28;20413;-78
2022/06/24 00:19:24;;;;;;;8.30;4.83;;;;;;;;;;5052798;28;20458;-76
2022/06/24 00:21:57;;;;;;;7.13;4.80;;;;;;;;;;5052809;28;20416;-81
2022/06/24 00:24:23;;;;;;;10.83;5.30;;;;;;;;;;5052179;28;20832;-77
2022/06/24 00:26:49;;;;;;;8.63;5.80;;;;;;;;;;5051433;28;20428;-79
2022/06/24 00:29:16;;;;;;;7.00;5.40;;;;;;;;;;5051363;28;20784;-80
2022/06/24 00:31:42;;;;;;;12.83;6.70;;;;;;;;;;5052526;28;20439;-78
2022/06/24 00:34:23;;;;;;;9.10;6.33;;;;;;;;;;5052369;28;20451;-78
2022/06/24 00:36:48;;;;;;;14.30;6.43;;;;;;;;;;5052546;28;20413;-77
2022/06/24 00:39:14;;;;;;;13.23;6.47;;;;;;;;;;5051389;28;20788;-76
2022/06/24 00:41:41;;;;;;;18.03;8.30;;;;;;;;;;5052653;28;20455;-77
2022/06/24 00:44:08;;;;;;;13.30;8.00;;;;;;;;;;5050964;28;20888;-76
2022/06/24 00:46:37;;;;;;;10.57;7.50;;;;;;;;;;5052294;28;20436;-76
2022/06/24 00:49:05;;;;;;;8.40;7.57;;;;;;;;;;5051206;28;20829;-77
2022/06/24 00:51:32;;;;;;;11.30;8.87;;;;;;;;;;5052440;28;20412;-76
2022/06/24 00:53:58;;;;;;;10.03;8.53;;;;;;;;;;5051871;28;20462;-76
2022/06/24 00:56:28;;;;;;;13.00;8.50;;;;;;;;;;5054375;28;20411;-77
2022/06/24 00:58:55;;;;;;;12.67;8.30;;;;;;;;;;5055920;28;20417;-78
2022/06/24 01:01:31;;;;;;;18.27;9.47;;;;;;;;;;5056004;28;20471;-77
2022/06/24 01:03:57;;;;;;;13.77;7.93;;;;;;;;;;5055547;28;20750;-77
2022/06/24 01:06:24;;;;;;;13.23;8.27;;;;;;;;;;5055753;28;20842;-77
2022/06/24 01:08:50;;;;;;;12.80;8.13;;;;;;;;;;5055628;28;20751;-78
2022/06/24 01:11:26;;;;;;;9.57;7.20;;;;;;;;;;5055779;28;20523;-78
2022/06/24 01:13:53;;;;;;;14.27;8.60;;;;;;;;;;5055577;28;20531;-77
2022/06/24 01:16:22;;;;;;;13.47;7.90;;;;;;;;;;5055603;28;20440;-77
2022/06/24 01:18:52;;;;;;;10.90;7.10;;;;;;;;;;5055404;28;20416;-76
2022/06/24 01:21:31;;;;;;;8.30;5.87;;;;;;;;;;5055785;28;20913;-78
2022/06/24 01:24:07;;;;;;;7.57;5.97;;;;;;;;;;5055314;28;20404;-78
2022/06/24 01:26:34;;;;;;;5.23;4.73;;;;;;;;;;5055433;28;20756;-78
2022/06/24 01:29:00;;;;;;;10.23;4.83;;;;;;;;;;5055445;28;20412;-76
2022/06/24 01:31:26;;;;;;;5.23;4.70;;;;;;;;;;5055517;28;20908;-80
2022/06/24 01:33:52;;;;;;;7.00;4.40;;;;;;;;;;5055293;28;20456;-78
2022/06/24 01:36:18;;;;;;;7.23;4.13;;;;;;;;;;5055264;28;20440;-78
2022/06/24 01:38:44;;;;;;;4.90;3.73;;;;;;;;;;5054059;28;20523;-78
2022/06/24 01:41:10;;;;;;;4.83;3.90;;;;;;;;;;5055150;28;20775;-78
2022/06/24 01:43:36;;;;;;;6.40;4.90;;;;;;;;;;5055001;28;20503;-78
2022/06/24 01:46:02;;;;;;;7.10;4.70;;;;;;;;;;5055380;28;20471;-77
2022/06/24 01:48:28;;;;;;;7.00;5.17;;;;;;;;;;5055213;28;20425;-77
2022/06/24 01:50:55;;;;;;;12.33;5.63;;;;;;;;;;5053746;28;20424;-77
2022/06/24 01:53:21;;;;;;;7.47;6.57;;;;;;;;;;5054737;28;20404;-78
2022/06/24 01:55:47;;;;;;;8.47;5.67;;;;;;;;;;5054912;28;20520;-78
2022/06/24 01:58:13;;;;;;;9.90;5.63;;;;;;;;;;5055021;28;20444;-77
2022/06/24 02:00:39;;;;;;;9.23;5.60;;;;;;;;;;5054903;28;20384;-77
2022/06/24 02:03:06;;;;;;;9.40;5.80;;;;;;;;;;5053282;28;20428;-78
2022/06/24 02:05:32;;;;;;;8.67;5.30;;;;;;;;;;5054721;28;20901;-77
2022/06/24 02:07:58;;;;;;;6.27;5.60;;;;;;;;;;5054495;28;20877;-77
2022/06/24 02:13:27;;;;;;;5.37;4.87;;;;;;;;;;5054811;28;20410;-77
2022/06/24 02:15:58;;;;;;;8.13;7.10;;;;;;;;;;5054786;28;20800;-77
2022/06/24 02:18:24;;;;;;;7.03;6.43;;;;;;;;;;5054610;28;20441;-78
2022/06/24 02:20:51;;;;;;;6.63;5.70;;;;;;;;;;5054612;28;20777;-78
2022/06/24 02:23:18;;;;;;;8.20;7.10;;;;;;;;;;5054140;28;20404;-78
2022/06/24 02:25:44;;;;;;;7.57;6.87;;;;;;;;;;5054383;28;20420;-78
2022/06/24 02:28:10;;;;;;;7.93;7.13;;;;;;;;;;5054459;28;20383;-78
2022/06/24 02:30:37;;;;;;;10.73;7.33;;;;;;;;;;5054404;28;20398;-78
2022/06/24 02:33:03;;;;;;;10.60;7.10;;;;;;;;;;5053879;28;20424;-78
2022/06/24 02:35:29;;;;;;;9.27;7.50;;;;;;;;;;5054257;28;20499;-77
2022/06/24 02:37:55;;;;;;;11.63;7.80;;;;;;;;;;5053151;28;20416;-78
2022/06/24 02:43:11;;;;;;;8.17;6.73;;;;;;;;;;5054117;28;20458;-78
2022/06/24 02:45:38;;;;;;;7.70;7.00;;;;;;;;;;5053881;28;20519;-78
2022/06/24 02:48:04;;;;;;;8.70;7.80;;;;;;;;;;5054020;28;20416;-78
2022/06/24 02:50:30;;;;;;;9.83;7.97;;;;;;;;;;5053949;28;20412;-77
2022/06/24 02:52:56;;;;;;;9.20;8.03;;;;;;;;;;5053647;28;20864;-77
2022/06/24 02:55:22;;;;;;;9.27;8.37;;;;;;;;;;5053599;28;20498;-77
2022/06/24 02:57:48;;;;;;;12.93;7.60;;;;;;;;;;5053936;28;20408;-77
2022/06/24 03:00:14;;;;;;;9.03;8.23;;;;;;;;;;5053775;28;20403;-78
2022/06/24 03:02:40;;;;;;;11.60;8.20;;;;;;;;;;5053746;28;20773;-77
2022/06/24 03:05:06;;;;;;;13.67;8.37;;;;;;;;;;5053416;28;20465;-77
2022/06/24 03:07:32;;;;;;;10.10;7.90;;;;;;;;;;5053616;28;20395;-78
2022/06/24 03:09:58;;;;;;;14.20;9.13;;;;;;;;;;5053509;28;20494;-77
2022/06/24 03:12:24;;;;;;;11.33;8.80;;;;;;;;;;5053631;28;20419;-78
2022/06/24 03:14:50;;;;;;;10.53;7.27;;;;;;;;;;5053113;28;20964;-78
2022/06/24 03:17:16;;;;;;;12.23;7.77;;;;;;;;;;5053558;28;20424;-78
2022/06/24 03:19:42;;;;;;;13.40;7.70;;;;;;;;;;5051529;28;20880;-77
2022/06/24 03:22:08;;;;;;;7.83;7.13;;;;;;;;;;5053490;28;20387;-77
2022/06/24 03:24:34;;;;;;;9.77;8.00;;;;;;;;;;5053020;28;20875;-78
2022/06/24 03:27:00;;;;;;;13.10;7.40;;;;;;;;;;5053700;28;20465;-78
2022/06/24 03:29:26;;;;;;;10.33;7.70;;;;;;;;;;5053403;28;20903;-78
2022/06/24 03:31:52;;;;;;;10.43;8.07;;;;;;;;;;5053107;28;20525;-78
2022/06/24 03:34:18;;;;;;;8.83;7.87;;;;;;;;;;5052790;28;20459;-78
2022/06/24 03:36:44;;;;;;;8.30;7.33;;;;;;;;;;5053339;28;20404;-79
2022/06/24 03:39:10;;;;;;;11.13;7.97;;;;;;;;;;5053318;28;20439;-78
2022/06/24 03:41:36;;;;;;;9.60;7.80;;;;;;;;;;5053260;28;20429;-79
2022/06/24 03:44:02;;;;;;;8.60;7.73;;;;;;;;;;5052798;28;20494;-78
2022/06/24 03:46:28;;;;;;;8.83;7.90;;;;;;;;;;5053172;28;20473;-78
2022/06/24 03:48:54;;;;;;;8.80;7.93;;;;;;;;;;5053111;28;21011;-79
2022/06/24 03:51:20;;;;;;;11.57;7.00;;;;;;;;;;5053251;28;20479;-79
2022/06/24 03:53:46;;;;;;;8.00;7.00;;;;;;;;;;5052580;28;20817;-79
2022/06/24 03:56:12;;;;;;;11.87;8.43;;;;;;;;;;5051564;28;20452;-78
2022/06/24 03:58:38;;;;;;;9.23;7.40;;;;;;;;;;5053003;28;20546;-77
2022/06/24 04:01:04;;;;;;;8.83;7.30;;;;;;;;;;5052953;28;20391;-78
2022/06/24 04:03:31;;;;;;;9.07;6.87;;;;;;;;;;5052678;28;20443;-78
2022/06/24 04:05:56;;;;;;;7.90;7.13;;;;;;;;;;5052639;28;20744;-78
2022/06/24 04:08:23;;;;;;;8.47;7.67;;;;;;;;;;5052897;28;20406;-78
2022/06/24 04:10:48;;;;;;;9.90;7.67;;;;;;;;;;5052958;28;20931;-79
2022/06/24 04:13:14;;;;;;;11.07;8.40;;;;;;;;;;5051449;28;20495;-77
2022/06/24 04:15:44;;;;;;;9.27;7.10;;;;;;;;;;5053022;28;20824;-78
2022/06/24 04:18:10;;;;;;;8.10;6.93;;;;;;;;;;5052528;28;20413;-79
2022/06/24 04:20:36;;;;;;;9.57;7.90;;;;;;;;;;5052305;28;20522;-79
2022/06/24 04:23:02;;;;;;;10.37;7.77;;;;;;;;;;5051443;28;20507;-79
2022/06/24 04:25:28;;;;;;;11.57;7.60;;;;;;;;;;5051545;28;20933;-77
2022/06/24 04:27:54;;;;;;;9.37;8.47;;;;;;;;;;5052533;28;20409;-78
2022/06/24 04:30:20;;;;;;;8.83;7.77;;;;;;;;;;5054954;28;20739;-78
2022/06/24 04:32:46;;;;;;;8.93;7.40;;;;;;;;;;5055165;28;20427;-79
2022/06/24 04:35:12;;;;;;;10.40;8.17;;;;;;;;;;5056230;28;20529;-78
2022/06/24 04:37:39;;;;;;;10.60;7.37;;;;;;;;;;5056408;28;20375;-78
2022/06/24 04:40:06;;;;;;;12.03;9.07;;;;;;;;;;5056592;28;20474;-78
2022/06/24 04:42:32;;;;;;;13.70;9.10;;;;;;;;;;5055291;28;20921;-80
2022/06/24 04:44:58;;;;;;;9.87;8.87;;;;;;;;;;5056088;28;20493;-79
2022/06/24 04:47:24;;;;;;;9.40;8.33;;;;;;;;;;5036563;28;20949;-79
2022/06/24 04:49:50;;;;;;;9.00;8.07;;;;;;;;;;5035014;28;20930;-78
2022/06/24 04:52:16;;;;;;;11.80;8.80;;;;;;;;;;5036117;28;20413;-79
2022/06/24 04:54:43;;;;;;;8.80;8.00;;;;;;;;;;5035870;28;20473;-78
2022/06/24 04:57:09;;;;;;;10.90;7.97;;;;;;;;;;5036166;28;20420;-79
2022/06/24 04:59:35;;;;;;;10.00;7.80;;;;;;;;;;5036113;28;20413;-77
2022/06/24 05:02:01;;;;;;;9.30;7.10;;;;;;;;;;5036103;28;20902;-79
2022/06/24 05:04:27;;;;;;;11.23;6.73;;;;;;;;;;5035427;28;20392;-78
2022/06/24 05:06:53;;;;;;;11.27;7.47;;;;;;;;;;5035681;28;20422;-77
2022/06/24 05:09:19;;;;;;;9.93;8.03;;;;;;;;;;5035711;28;20384;-80
2022/06/24 05:11:46;;;;;;;11.97;6.93;;;;;;;;;;5034925;28;20409;-81
2022/06/24 05:14:13;;;;;;;11.80;7.77;;;;;;;;;;5034056;28;20488;-80
2022/06/24 05:16:40;;;;;;;11.20;8.20;;;;;;;;;;5035627;28;20507;-79
2022/06/24 05:19:06;;;;;;;9.50;8.37;;;;;;;;;;5035731;28;20401;-82
2022/06/24 05:21:32;;;;;;;8.50;7.80;;;;;;;;;;5035793;28;20475;-82
2022/06/24 05:23:58;;;;;;;10.03;8.10;;;;;;;;;;5035523;28;20879;-76
2022/06/24 05:26:24;;;;;;;15.93;6.83;;;;;;;;;;5035503;28;20908;-77
2022/06/24 05:28:50;;;;;;;8.87;7.40;;;;;;;;;;5027491;28;20428;-76
2022/06/24 05:31:16;;;;;;;9.27;6.97;;;;;;;;;;5035281;28;20960;-76
2022/06/24 05:33:42;;;;;;;7.40;5.80;;;;;;;;;;5051882;28;20431;-76
2022/06/24 05:36:09;;;;;;;8.67;6.70;;;;;;;;;;5055478;28;20445;-76
2022/06/24 05:38:35;;;;;;;8.80;5.63;;;;;;;;;;5055451;28;20496;-76
2022/06/24 05:41:02;;;;;;;9.33;6.63;;;;;;;;;;5054708;28;20470;-76
2022/06/24 05:43:28;;;;;;;7.13;6.27;;;;;;;;;;5054911;28;20394;-76
2022/06/24 05:45:54;;;;;;;7.10;6.03;;;;;;;;;;5055260;28;20432;-76
2022/06/24 05:48:20;;;;;;;7.63;5.53;;;;;;;;;;5055204;28;20387;-77
2022/06/24 05:50:46;;;;;;;6.33;5.60;;;;;;;;;;5054943;28;20412;-76
2022/06/24 05:55:58;;;;;;;6.80;5.83;;;;;;;;;;5055269;28;20478;-76
2022/06/24 05:58:25;;;;;;;7.93;5.70;;;;;;;;;;5037280;28;20409;-76
2022/06/24 06:00:51;;;;;;;5.53;5.00;;;;;;;;;;5054758;28;20427;-76
2022/06/24 06:03:17;;;;;;;5.97;5.40;;;;;;;;;;5054603;28;20396;-77
2022/06/24 06:05:43;;;;;;;9.93;6.00;;;;;;;;;;5054865;28;20459;-76
2022/06/24 06:08:10;;;;;;;6.40;5.80;;;;;;;;;;5054835;28;20408;-76
2022/06/24 06:10:37;;;;;;;9.93;5.73;;;;;;;;;;5054739;28;20381;-76
2022/06/24 06:13:03;;;;;;;8.30;6.20;;;;;;;;;;5054351;28;20890;-76
2022/06/24 06:15:32;;;;;;;16.87;5.63;;;;;;;;;;5053276;28;21107;-76
2022/06/24 06:18:01;;;;;;;8.20;5.50;;;;;;;;;;5053470;28;20420;-76
2022/06/24 06:20:28;;;;;;;11.23;6.27;;;;;;;;;;5054836;28;20458;-77
2022/06/24 06:22:54;;;;;;;9.77;6.50;;;;;;;;;;5054206;28;20499;-76
2022/06/24 06:25:22;;;;;;;8.57;5.67;;;;;;;;;;5054343;28;20527;-76
2022/06/24 06:27:48;;;;;;;7.40;6.20;;;;;;;;;;5054675;28;20805;-76
2022/06/24 06:30:14;;;;;;;9.60;6.60;;;;;;;;;;5054538;28;20466;-77
2022/06/24 06:32:40;;;;;;;8.90;6.23;;;;;;;;;;5054345;28;20468;-76
2022/06/24 06:35:07;;;;;;;9.10;5.20;;;;;;;;;;5053821;28;20475;-77
2022/06/24 06:37:33;;;;;;;9.40;5.73;;;;;;;;;;5054302;28;20474;-76
2022/06/24 06:39:59;;;;;;;7.53;5.90;;;;;;;;;;5054290;28;20448;-76
2022/06/24 06:42:25;;;;;;;10.57;5.20;;;;;;;;;;5054040;28;20405;-76
2022/06/24 06:44:51;;;;;;;9.20;4.17;;;;;;;;;;5053859;28;20442;-75
2022/06/24 06:47:17;;;;;;;23.17;7.03;;;;;;;;;;5054107;28;20469;-77
2022/06/24 06:49:43;;;;;;;67.23;9.43;;;;;;;;;;5053982;28;20416;-77
2022/06/24 06:52:09;;;;;;;20.23;5.13;;;;;;;;;;5053901;28;20418;-77
2022/06/24 06:54:35;;;;;;;10.13;3.27;;;;;;;;;;5051560;28;20477;-78
2022/06/24 06:57:01;;;;;;;17.63;3.50;;;;;;;;;;5053884;28;20402;-78
2022/06/24 06:59:27;;;;;;;12.17;4.03;;;;;;;;;;5053759;28;20382;-77
2022/06/24 07:01:53;;;;;;;5.63;3.37;;;;;;;;;;5053836;28;20411;-77
2022/06/24 07:04:19;;;;;;;8.77;4.40;;;;;;;;;;5053328;28;20387;-78
2022/06/24 07:06:47;;;;;;;4.50;3.60;;;;;;;;;;5053705;28;20447;-78
2022/06/24 07:09:13;;;;;;;8.13;4.40;;;;;;;;;;5053619;28;20412;-77
2022/06/24 07:11:39;;;;;;;4.60;4.20;;;;;;;;;;5053534;28;20379;-77
2022/06/24 07:14:05;;;;;;;5.13;4.63;;;;;;;;;;5053296;28;20460;-77
2022/06/24 07:16:31;;;;;;;7.03;5.50;;;;;;;;;;5053526;28;20431;-76
2022/06/24 07:18:57;;;;;;;8.87;6.13;;;;;;;;;;5053629;28;20789;-78
2022/06/24 07:21:23;;;;;;;7.10;6.40;;;;;;;;;;5053537;28;20419;-78
2022/06/24 07:23:49;;;;;;;9.03;7.20;;;;;;;;;;5053233;28;20447;-79
2022/06/24 07:26:15;;;;;;;7.40;6.40;;;;;;;;;;5053795;28;20419;-78
2022/06/24 07:28:42;;;;;;;8.67;7.10;;;;;;;;;;5052144;28;20425;-79
2022/06/24 07:31:26;;;;;;;9.40;7.43;;;;;;;;;;5053278;28;20399;-79
2022/06/24 07:33:52;;;;;;;7.63;6.90;;;;;;;;;;5043905;28;20435;-79
2022/06/24 07:36:18;;;;;;;12.43;8.30;;;;;;;;;;5052968;28;20432;-79
2022/06/24 07:38:44;;;;;;;9.53;8.40;;;;;;;;;;5041876;28;20385;-78
2022/06/24 07:41:10;;;;;;;10.00;8.93;;;;;;;;;;5043804;28;20490;-78
2022/06/24 07:43:37;;;;;;;8.87;8.07;;;;;;;;;;5035289;28;20816;-78
2022/06/24 07:46:04;;;;;;;12.00;10.47;;;;;;;;;;5033170;28;20711;-80
2022/06/24 07:48:30;;;;;;;12.23;9.73;;;;;;;;;;5033295;28;20420;-78
2022/06/24 07:50:56;;;;;;;11.50;10.03;;;;;;;;;;5033157;28;20494;-79
2022/06/24 07:53:22;;;;;;;13.33;10.97;;;;;;;;;;5032753;28;20423;-80
2022/06/24 07:58:32;;;;;;;11.30;10.40;;;;;;;;;;5033153;28;20401;-79
2022/06/24 08:01:01;;;;;;;12.17;10.87;;;;;;;;;;5031754;28;20388;-80
2022/06/24 08:03:27;;;;;;;15.87;11.30;;;;;;;;;;5031590;28;20384;-80
2022/06/24 08:05:53;;;;;;;14.30;12.00;;;;;;;;;;5036106;28;20494;-79
2022/06/24 08:08:19;;;;;;;12.10;9.93;;;;;;;;;;5035693;28;20445;-78
2022/06/24 08:10:45;;;;;;;13.50;11.00;;;;;;;;;;5037061;28;20388;-79
2022/06/24 08:13:11;;;;;;;11.80;10.27;;;;;;;;;;5036712;28;20388;-78
2022/06/24 08:15:37;;;;;;;11.47;10.23;;;;;;;;;;5035696;28;20454;-79
2022/06/24 08:18:03;;;;;;;12.23;10.50;;;;;;;;;;5042007;28;20409;-79
2022/06/24 08:20:29;;;;;;;16.20;10.87;;;;;;;;;;5051812;28;20774;-81
2022/06/24 08:22:55;;;;;;;11.87;10.43;;;;;;;;;;5036576;28;20412;-81
2022/06/24 08:25:21;;;;;;;13.63;11.60;;;;;;;;;;5036588;28;20459;-79
2022/06/24 08:27:47;;;;;;;10.60;9.70;;;;;;;;;;5036747;28;20439;-80
2022/06/24 08:30:13;;;;;;;11.83;9.83;;;;;;;;;;5036751;28;20388;-79
2022/06/24 08:32:39;;;;;;;12.03;8.90;;;;;;;;;;5036526;28;20429;-81
2022/06/24 08:35:05;;;;;;;10.07;8.40;;;;;;;;;;5036152;28;20607;-82
2022/06/24 08:37:31;;;;;;;8.67;7.77;;;;;;;;;;5035294;28;20858;-82
2022/06/24 08:39:57;;;;;;;9.20;8.30;;;;;;;;;;5038531;28;20422;-81
2022/06/24 08:42:28;;;;;;;8.57;7.80;;;;;;;;;;5036770;28;20422;-80
2022/06/24 08:44:54;;;;;;;8.40;7.60;;;;;;;;;;5036251;28;20517;-79
2022/06/24 08:47:20;;;;;;;10.73;9.03;;;;;;;;;;5036456;28;20384;-79
2022/06/24 08:49:46;;;;;;;13.33;9.90;;;;;;;;;;5040091;28;20517;-79
2022/06/24 08:52:13;;;;;;;8.20;7.50;;;;;;;;;;5045187;28;20966;-79
2022/06/24 08:54:42;;;;;;;11.73;8.60;;;;;;;;;;5046669;28;20530;-79
2022/06/24 08:57:08;;;;;;;9.13;8.10;;;;;;;;;;5056191;28;20383;-78
2022/06/24 08:59:34;;;;;;;8.00;6.37;;;;;;;;;;5056191;28;20379;-78
2022/06/24 09:02:00;;;;;;;12.40;7.60;;;;;;;;;;5048568;28;20413;-78
2022/06/24 09:04:26;;;;;;;7.57;6.77;;;;;;;;;;5046158;28;20466;-78
2022/06/24 09:06:52;;;;;;;7.93;6.53;;;;;;;;;;5045491;28;20432;-78
2022/06/24 09:09:25;;;;;;;10.03;7.60;;;;;;;;;;5044647;28;20403;-78
2022/06/24 09:12:00;;;;;;;6.67;6.07;;;;;;;;;;5045354;28;20421;-77
2022/06/24 09:14:43;;;;;;;6.77;5.67;;;;;;;;;;5042895;28;20489;-77
2022/06/24 09:17:10;;;;;;;7.60;5.87;;;;;;;;;;5034901;28;20397;-77
2022/06/24 09:19:37;;;;;;;7.07;5.60;;;;;;;;;;5035891;28;20409;-77
2022/06/24 09:22:03;;;;;;;4.93;4.43;;;;;;;;;;5036101;28;20621;-77
2022/06/24 09:24:47;;;;;;;6.13;4.97;;;;;;;;;;5035250;28;20779;-77
2022/06/24 09:27:14;;;;;;;5.27;3.50;;;;;;;;;;5035646;28;20432;-78
2022/06/24 09:29:47;;;;;;;5.30;3.20;;;;;;;;;;5035728;28;20417;-77
2022/06/24 09:32:13;;;;;;;9.77;4.07;;;;;;;;;;5035617;28;20433;-77
2022/06/24 09:34:39;;;;;;;5.00;3.27;;;;;;;;;;5034985;28;20875;-77
2022/06/24 09:37:07;;;;;;;4.13;3.60;;;;;;;;;;5035467;28;20432;-77
2022/06/24 09:39:33;;;;;;;3.70;3.40;;;;;;;;;;5035656;28;20500;-77
2022/06/24 09:41:59;;;;;;;8.90;3.30;;;;;;;;;;5037759;28;22116;-78
2022/06/24 09:44:24;;;;;;;4.40;3.67;;;;;;;;;;5041109;28;20528;-78
2022/06/24 09:47:03;;;;;;;4.67;3.87;;;;;;;;;;5035424;28;20442;-77
2022/06/24 09:49:30;;;;;;;3.80;3.37;;;;;;;;;;5035478;28;20417;-77
2022/06/24 09:51:56;;;;;;;4.77;3.13;;;;;;;;;;5035393;28;20417;-77
2022/06/24 09:54:22;;;;;;;4.47;3.20;;;;;;;;;;5034810;28;20464;-78
2022/06/24 09:56:50;;;;;;;3.30;3.00;;;;;;;;;;5035044;28;20448;-77
2022/06/24 10:02:01;;;;;;;4.53;3.40;;;;;;;;;;5035301;28;20395;-77
2022/06/24 10:04:28;;;;;;;4.67;2.90;;;;;;;;;;5040126;28;20451;-78
2022/06/24 10:06:55;;;;;;;5.90;3.60;;;;;;;;;;5045029;28;20901;-77
2022/06/24 10:09:26;;;;;;;5.87;2.70;;;;;;;;;;5037257;28;20428;-77
2022/06/24 10:11:54;;;;;;;3.40;2.80;;;;;;;;;;5034842;28;20415;-78
2022/06/24 10:14:20;;;;;;;5.90;2.60;;;;;;;;;;5034269;28;20456;-77
2022/06/24 10:16:48;;;;;;;5.50;3.13;;;;;;;;;;5034623;28;20410;-78
2022/06/24 10:19:14;;;;;;;5.70;3.20;;;;;;;;;;5034691;28;20811;-78
2022/06/24 10:21:40;;;;;;;4.90;3.00;;;;;;;;;;5034678;28;20441;-77
2022/06/24 10:24:13;;;;;;;2.80;2.60;;;;;;;;;;5034482;28;20782;-77
2022/06/24 10:26:41;;;;;;;4.00;2.90;;;;;;;;;;5034554;28;20432;-78
2022/06/24 10:29:07;;;;;;;4.23;3.47;;;;;;;;;;5034273;28;20769;-77
2022/06/24 10:31:48;;;;;;;3.87;2.53;;;;;;;;;;5033028;28;20432;-77
2022/06/24 10:34:26;;;;;;;3.87;2.70;;;;;;;;;;5034439;28;20557;-79
2022/06/24 10:36:53;;;;;;;3.83;2.77;;;;;;;;;;5034638;28;20878;-78
2022/06/24 10:39:20;;;;;;;3.90;2.80;;;;;;;;;;5033162;28;20471;-79
2022/06/24 10:41:46;;;;;;;3.70;3.13;;;;;;;;;;5034498;28;20902;-80
2022/06/24 10:44:22;;;;;;;3.00;2.30;;;;;;;;;;5032691;28;20432;-79
2022/06/24 10:47:21;;;;;;;3.20;2.70;;;;;;;;;;5033252;28;20431;-79
2022/06/24 10:49:54;;;;;;;6.87;2.90;;;;;;;;;;5032897;28;20430;-79
2022/06/24 10:52:31;;;;;;;6.23;3.23;;;;;;;;;;5033935;28;20402;-79
2022/06/24 10:55:24;;;;;;;9.47;3.30;;;;;;;;;;5033074;28;20518;-79
2022/06/24 10:57:51;;;;;;;3.33;3.03;;;;;;;;;;5034145;28;20827;-79
2022/06/24 11:00:17;;;;;;;5.60;3.40;;;;;;;;;;5034060;28;20410;-79
2022/06/24 11:02:45;;;;;;;6.73;3.50;;;;;;;;;;5032506;28;20834;-79
2022/06/24 11:05:18;;;;;;;3.70;3.40;;;;;;;;;;5033452;28;20446;-78
2022/06/24 11:07:45;;;;;;;3.50;3.20;;;;;;;;;;5033922;28;20477;-80
2022/06/24 11:10:17;;;;;;;7.90;4.63;;;;;;;;;;5033813;28;20742;-77
2022/06/24 11:12:48;;;;;;;8.73;5.03;;;;;;;;;;5033842;28;20881;-78
2022/06/24 11:15:14;;;;;;;5.77;5.00;;;;;;;;;;5032981;28;20549;-80
2022/06/24 11:17:43;;;;;;;5.90;5.23;;;;;;;;;;5034770;28;20494;-79
2022/06/24 11:20:10;;;;;;;5.73;5.23;;;;;;;;;;5032582;28;20417;-78
2022/06/24 11:22:43;;;;;;;5.50;5.00;;;;;;;;;;5052128;28;20499;-78
2022/06/24 11:25:10;;;;;;;7.73;5.40;;;;;;;;;;5052702;28;20406;-79
2022/06/24 11:27:37;;;;;;;6.77;5.50;;;;;;;;;;5051742;28;20787;-78
2022/06/24 11:30:04;;;;;;;9.70;4.80;;;;;;;;;;5053373;28;20426;-79
2022/06/24 11:32:49;;;;;;;5.03;4.60;;;;;;;;;;5053290;28;20425;-78
2022/06/24 11:35:19;;;;;;;4.73;4.33;;;;;;;;;;5052784;28;20522;-78
2022/06/24 11:37:45;;;;;;;5.20;4.30;;;;;;;;;;5053275;28;20460;-78
2022/06/24 11:40:19;;;;;;;4.90;4.50;;;;;;;;;;5052623;28;20893;-79
2022/06/24 11:42:45;;;;;;;4.47;3.70;;;;;;;;;;5053131;28;20408;-78
2022/06/24 11:45:11;;;;;;;5.37;3.73;;;;;;;;;;5052930;28;20436;-79
2022/06/24 11:47:37;;;;;;;3.57;3.27;;;;;;;;;;5052001;28;20476;-78
2022/06/24 11:50:03;;;;;;;11.40;2.50;;;;;;;;;;5051867;28;20419;-79
2022/06/24 11:52:29;;;;;;;2.50;2.30;;;;;;;;;;5053140;28;20767;-79
2022/06/24 11:54:55;;;;;;;2.60;2.03;;;;;;;;;;5045637;28;20521;-79
2022/06/24 11:57:21;;;;;;;3.00;2.80;;;;;;;;;;5032696;28;20500;-78
2022/06/24 11:59:47;;;;;;;3.30;2.30;;;;;;;;;;5041070;28;20506;-79
2022/06/24 12:02:14;;;;;;;2.60;2.37;;;;;;;;;;5051155;28;20459;-79
2022/06/24 12:04:41;;;;;;;6.90;2.50;;;;;;;;;;5052493;28;20465;-79
2022/06/24 12:07:07;;;;;;;3.37;1.83;;;;;;;;;;5052665;28;20413;-79
2022/06/24 12:09:34;;;;;;;2.13;1.93;;;;;;;;;;5051144;28;20479;-79
2022/06/24 12:12:10;;;;;;;6.63;2.57;;;;;;;;;;5043756;28;20776;-80
2022/06/24 12:14:36;;;;;;;3.13;2.27;;;;;;;;;;5031039;28;20473;-79
2022/06/24 12:17:06;;;;;;;3.27;2.23;;;;;;;;;;5032784;28;20767;-79
2022/06/24 12:19:33;;;;;;;6.73;2.50;;;;;;;;;;5032875;28;20497;-78
2022/06/24 12:22:09;;;;;;;3.93;2.50;;;;;;;;;;5032784;28;20815;-79
2022/06/24 12:24:35;;;;;;;5.43;2.83;;;;;;;;;;5032548;28;20417;-79
2022/06/24 12:27:04;;;;;;;6.93;2.23;;;;;;;;;;5032918;28;20425;-79
2022/06/24 12:29:34;;;;;;;3.93;2.50;;;;;;;;;;5032735;28;20433;-79
2022/06/24 12:32:01;;;;;;;2.93;2.63;;;;;;;;;;5032530;28;20752;-80
2022/06/24 12:34:31;;;;;;;6.43;2.87;;;;;;;;;;5031857;28;20453;-79
2022/06/24 12:36:58;;;;;;;2.87;2.53;;;;;;;;;;5033289;28;20886;-79
2022/06/24 12:39:29;;;;;;;3.13;2.90;;;;;;;;;;5032817;28;20402;-79
2022/06/24 12:41:56;;;;;;;2.93;2.63;;;;;;;;;;5044679;28;20428;-79
2022/06/24 12:44:22;;;;;;;3.50;2.50;;;;;;;;;;5032150;28;20413;-79
2022/06/24 12:52:39;;;;;;;2.70;2.50;;;;;;;;;;5036565;28;20961;-80
2022/06/24 12:55:07;;;;;;;3.73;2.80;;;;;;;;;;5035870;28;20460;-80
2022/06/24 12:57:33;;;;;;;3.87;2.10;;;;;;;;;;5046874;28;20929;-80
2022/06/24 12:59:59;;;;;;;2.43;2.20;;;;;;;;;;5056070;28;20489;-79
2022/06/24 13:02:25;;;;;;;2.77;2.57;;;;;;;;;;5038393;28;20548;-80
2022/06/24 13:04:51;;;;;;;4.27;2.60;;;;;;;;;;5055750;28;20440;-79
2022/06/24 13:07:17;;;;;;;3.03;2.60;;;;;;;;;;5055976;28;20773;-79
2022/06/24 13:09:44;;;;;;;4.23;2.10;;;;;;;;;;5055921;28;20422;-80
2022/06/24 13:12:10;;;;;;;4.30;2.13;;;;;;;;;;5054442;28;20421;-79
2022/06/24 13:14:36;;;;;;;4.07;2.40;;;;;;;;;;5055091;28;20863;-79
2022/06/24 13:17:02;;;;;;;7.40;2.20;;;;;;;;;;5055738;28;20494;-79
2022/06/24 13:19:28;;;;;;;6.97;1.57;;;;;;;;;;5054509;28;20436;-80
2022/06/24 13:21:54;;;;;;;2.17;1.33;;;;;;;;;;5055638;28;20435;-80
2022/06/24 13:24:23;;;;;;;2.00;1.00;;;;;;;;;;5054001;28;20495;-79
2022/06/24 13:26:52;;;;;;;3.00;1.53;;;;;;;;;;5055613;28;20932;-80
2022/06/24 13:29:21;;;;;;;2.43;1.87;;;;;;;;;;5054513;28;20775;-79
2022/06/24 13:31:47;;;;;;;2.90;1.30;;;;;;;;;;5055775;28;20435;-80
2022/06/24 13:34:18;;;;;;;2.83;1.53;;;;;;;;;;5053663;28;20468;-80
2022/06/24 13:36:46;;;;;;;3.30;2.10;;;;;;;;;;5055460;28;20504;-80
2022/06/24 13:39:12;;;;;;;3.20;1.73;;;;;;;;;;5054114;28;20986;-80
2022/06/24 13:41:38;;;;;;;2.90;1.97;;;;;;;;;;5054135;28;20441;-80
2022/06/24 13:44:04;;;;;;;2.50;1.80;;;;;;;;;;5054925;28;20421;-80
2022/06/24 13:46:31;;;;;;;4.80;1.83;;;;;;;;;;5055129;28;20429;-79
2022/06/24 13:48:58;;;;;;;1.97;1.63;;;;;;;;;;5055359;28;20444;-79
2022/06/24 13:51:25;;;;;;;3.07;2.10;;;;;;;;;;5055276;28;20416;-79
2022/06/24 13:53:54;;;;;;;3.20;1.73;;;;;;;;;;5053513;28;20501;-79
2022/06/24 13:56:21;;;;;;;2.33;1.67;;;;;;;;;;5055015;28;20777;-79
2022/06/24 13:58:48;;;;;;;3.57;1.40;;;;;;;;;;5055046;28;20439;-79
2022/06/24 14:01:14;;;;;;;2.63;1.50;;;;;;;;;;5055075;28;20409;-80
2022/06/24 14:03:40;;;;;;;2.10;1.40;;;;;;;;;;5054058;28;20409;-80
2022/06/24 14:06:06;;;;;;;3.33;1.80;;;;;;;;;;5053407;28;20810;-79
2022/06/24 14:08:32;;;;;;;3.03;1.70;;;;;;;;;;5054547;28;20431;-80
2022/06/24 14:10:58;;;;;;;2.00;1.60;;;;;;;;;;5054792;28;20420;-80
2022/06/24 14:13:24;;;;;;;4.70;2.13;;;;;;;;;;5054387;28;20407;-80
2022/06/24 14:15:50;;;;;;;2.67;1.80;;;;;;;;;;5054464;28;20825;-81
2022/06/24 14:18:17;;;;;;;2.17;1.60;;;;;;;;;;5054565;28;20928;-81
2022/06/24 14:20:43;;;;;;;2.13;1.70;;;;;;;;;;5054419;28;20967;-80
2022/06/24 14:25:54;;;;;;;4.10;2.10;;;;;;;;;;5054820;28;20996;-80
2022/06/24 14:28:20;;;;;;;2.00;1.67;;;;;;;;;;5054543;28;20764;-80
2022/06/24 14:30:46;;;;;;;2.90;1.80;;;;;;;;;;5054351;28;20485;-80
2022/06/24 14:33:12;;;;;;;2.63;1.90;;;;;;;;;;5053981;28;20439;-80
2022/06/24 14:35:38;;;;;;;2.93;2.00;;;;;;;;;;5054346;28;20480;-79
2022/06/24 14:40:49;;;;;;;3.10;2.10;;;;;;;;;;5054435;28;20447;-79
2022/06/24 14:43:15;;;;;;;2.47;2.00;;;;;;;;;;5054188;28;20554;-79
2022/06/24 14:45:41;;;;;;;4.50;2.13;;;;;;;;;;5054373;28;20460;-80
2022/06/24 14:48:07;;;;;;;3.80;2.00;;;;;;;;;;5054297;28;20494;-80
2022/06/24 14:50:34;;;;;;;2.70;1.83;;;;;;;;;;5054201;28;20489;-81
2022/06/24 14:53:01;;;;;;;3.20;1.97;;;;;;;;;;5052454;28;20420;-78
2022/06/24 14:55:27;;;;;;;3.67;2.20;;;;;;;;;;5053751;28;20940;-80
2022/06/24 14:57:54;;;;;;;2.27;1.83;;;;;;;;;;5052523;28;20503;-77
2022/06/24 15:00:21;;;;;;;3.10;2.40;;;;;;;;;;5053696;28;20928;-79
2022/06/24 15:02:47;;;;;;;3.20;2.23;;;;;;;;;;5053598;28;20808;-81
2022/06/24 15:05:13;;;;;;;3.33;2.50;;;;;;;;;;5053299;28;20440;-77